Time;durP1;ratioP1;P1;durP2;ratioP2;P2;SDS_P1;SDS_P2;PMS_P1;PMS_P2;Temp;Humidity;BMP_temperature;BMP_pressure;BME280_temperature;BME280_humidity;BME280_pressure;Samples;Min_cycle;Max_cycle;Signal;HPM_P1;HPM_P2
2024/04/17 00:02:09;;;;;;;5.90;2.13;;;;;;;12.79;100.00;97568.25;5265968;26;20343;-82
2024/04/17 00:04:34;;;;;;;3.47;1.50;;;;;;;12.72;100.00;97560.31;5266206;26;19997;-82
2024/04/17 00:07:03;;;;;;;5.18;1.90;;;;;;;12.71;100.00;97550.72;5351604;26;20433;-81
2024/04/17 00:09:29;;;;;;;4.50;2.00;;;;;;;12.59;100.00;97536.47;5261181;26;20013;-81
2024/04/17 00:11:55;;;;;;;3.97;2.03;;;;;;;12.69;100.00;97541.28;5261976;26;20110;-81
2024/04/17 00:14:27;;;;;;;5.70;1.63;;;;;;;12.71;100.00;97529.41;5289011;26;20001;-81
2024/04/17 00:16:53;;;;;;;4.88;1.83;;;;;;;12.64;100.00;97522.53;5259470;26;20360;-83
2024/04/17 00:19:19;;;;;;;8.18;1.70;;;;;;;12.65;100.00;97530.28;5259408;26;20013;-83
2024/04/17 00:21:45;;;;;;;7.55;1.67;;;;;;;12.62;100.00;97562.69;5259850;26;20001;-82
2024/04/17 00:24:16;;;;;;;2.90;1.88;;;;;;;12.70;100.00;97580.22;5288843;26;20491;-82
2024/04/17 00:26:44;;;;;;;3.33;1.42;;;;;;;12.64;100.00;97589.88;5232423;26;20012;-82
2024/04/17 00:29:13;;;;;;;4.30;2.20;;;;;;;12.61;100.00;97565.56;5289552;26;20121;-82
2024/04/17 00:31:39;;;;;;;3.55;2.00;;;;;;;12.59;100.00;97580.94;5235452;26;20044;-82
2024/04/17 00:34:05;;;;;;;6.60;2.17;;;;;;;12.57;100.00;97583.84;5258137;27;20008;-83
2024/04/17 00:36:32;;;;;;;7.68;2.40;;;;;;;12.60;100.00;97579.91;5226998;27;20391;-83
2024/04/17 00:38:58;;;;;;;5.70;2.00;;;;;;;12.58;100.00;97576.63;5225826;27;20013;-81
2024/04/17 00:41:24;;;;;;;2.97;1.80;;;;;;;12.66;100.00;97553.22;5254371;27;20126;-80
2024/04/17 00:43:50;;;;;;;5.47;1.85;;;;;;;12.67;100.00;97559.38;5226054;27;20009;-81
2024/04/17 00:46:17;;;;;;;6.10;1.80;;;;;;;12.73;100.00;97567.25;5255004;26;20412;-83
2024/04/17 00:48:45;;;;;;;3.28;1.70;;;;;;;12.69;100.00;97544.78;5258859;26;20503;-80
2024/04/17 00:51:13;;;;;;;3.58;1.88;;;;;;;12.75;100.00;97545.72;5315846;26;20001;-82
2024/04/17 00:53:40;;;;;;;6.18;1.80;;;;;;;12.78;100.00;97535.44;5258677;26;20060;-82
2024/04/17 00:56:07;;;;;;;3.85;1.67;;;;;;;12.74;100.00;97538.78;5258962;26;20045;-82
2024/04/17 00:58:34;;;;;;;5.25;2.30;;;;;;;12.78;100.00;97531.97;5287323;26;19997;-83
2024/04/17 01:01:02;;;;;;;4.53;1.63;;;;;;;12.87;100.00;97525.31;5288535;26;20009;-81
2024/04/17 01:03:29;;;;;;;4.55;2.15;;;;;;;12.84;100.00;97518.56;5260019;26;20339;-81
2024/04/17 01:05:55;;;;;;;6.80;1.92;;;;;;;12.81;100.00;97537.66;5311487;26;20001;-82
2024/04/17 01:08:21;;;;;;;3.13;1.88;;;;;;;12.85;100.00;97546.84;5288163;26;20016;-82
2024/04/17 01:10:58;;;;;;;2.85;1.70;;;;;;;12.95;100.00;97552.47;5259956;26;20001;-81
2024/04/17 01:13:25;;;;;;;4.45;2.28;;;;;;;12.86;100.00;97558.31;5261743;26;20012;-83
2024/04/17 01:15:51;;;;;;;3.97;1.90;;;;;;;12.86;100.00;97555.66;5289381;26;20325;-82
2024/04/17 01:18:19;;;;;;;4.65;2.00;;;;;;;12.91;100.00;97545.97;5317427;26;20043;-81
2024/04/17 01:20:45;;;;;;;4.55;1.80;;;;;;;12.84;100.00;97533.75;5322699;26;20001;-82
2024/04/17 01:23:11;;;;;;;5.50;2.00;;;;;;;12.77;100.00;97539.16;5299082;26;20097;-83
2024/04/17 01:25:36;;;;;;;4.88;2.10;;;;;;;12.78;100.00;97524.78;5292911;26;20007;-81
2024/04/17 01:28:02;;;;;;;3.35;1.98;;;;;;;12.78;100.00;97516.81;5320804;26;20004;-80
2024/04/17 01:30:30;;;;;;;4.55;2.08;;;;;;;12.79;100.00;97521.09;5289884;26;20012;-81
2024/04/17 01:32:56;;;;;;;4.80;2.20;;;;;;;12.75;100.00;97500.44;5288968;26;20308;-82
2024/04/17 01:35:22;;;;;;;5.80;2.38;;;;;;;12.78;100.00;97492.00;5289043;26;19997;-83
2024/04/17 01:37:48;;;;;;;4.68;2.30;;;;;;;12.79;100.00;97501.66;5291599;26;19997;-82
2024/04/17 01:40:14;;;;;;;9.88;2.60;;;;;;;12.84;100.00;97497.25;5290388;26;20360;-81
2024/04/17 01:42:40;;;;;;;6.90;2.35;;;;;;;12.90;100.00;97503.56;5261030;26;20011;-82
2024/04/17 01:45:08;;;;;;;2.97;1.50;;;;;;;12.92;100.00;97491.63;5317802;26;20005;-82
2024/04/17 01:47:35;;;;;;;4.07;1.80;;;;;;;12.90;100.00;97485.72;5290895;26;20316;-80
2024/04/17 01:50:02;;;;;;;5.63;1.92;;;;;;;12.93;100.00;97503.13;5297053;26;19997;-81
2024/04/17 01:52:30;;;;;;;3.92;1.90;;;;;;;12.83;100.00;97497.50;5298561;26;20008;-81
2024/04/17 01:54:59;;;;;;;3.70;2.03;;;;;;;12.93;100.00;97473.81;5296284;26;20051;-82
2024/04/17 01:57:25;;;;;;;3.05;1.73;;;;;;;12.95;100.00;97485.03;5293154;26;20308;-81
2024/04/17 01:59:51;;;;;;;3.38;1.65;;;;;;;12.99;100.00;97486.22;5293766;26;20016;-82
2024/04/17 02:02:19;;;;;;;3.60;1.73;;;;;;;13.09;100.00;97495.34;5295349;26;20005;-81
2024/04/17 02:04:47;;;;;;;2.90;1.75;;;;;;;13.08;100.00;97496.38;5292686;26;20005;-83
2024/04/17 02:07:13;;;;;;;4.55;1.85;;;;;;;13.06;100.00;97511.78;5252910;27;20083;-81
2024/04/17 02:09:39;;;;;;;4.43;1.90;;;;;;;13.12;100.00;97502.88;5291329;27;20007;-81
2024/04/17 02:12:05;;;;;;;5.28;1.83;;;;;;;13.22;100.00;97499.69;5231919;27;20008;-82
2024/04/17 02:14:31;;;;;;;3.42;1.85;;;;;;;13.22;100.00;97500.47;5283009;27;20016;-82
2024/04/17 02:16:57;;;;;;;3.05;1.70;;;;;;;13.20;100.00;97513.22;5224282;27;20005;-81
2024/04/17 02:19:48;;;;;;;3.58;1.73;;;;;;;13.22;100.00;97515.66;5250038;27;20018;-81
2024/04/17 02:22:16;;;;;;;7.55;2.45;;;;;;;13.09;100.00;97518.50;5196225;27;20003;-80
2024/04/17 02:24:42;;;;;;;4.32;1.95;;;;;;;13.05;100.00;97515.47;5239537;27;20002;-81
2024/04/17 02:27:09;;;;;;;4.82;1.90;;;;;;;13.01;100.00;97514.28;5263980;27;20013;-81
2024/04/17 02:29:34;;;;;;;3.22;1.80;;;;;;;12.99;100.00;97516.31;5219148;27;20512;-81
2024/04/17 02:32:00;;;;;;;3.50;1.98;;;;;;;13.09;100.00;97510.50;5217087;27;20014;-82
2024/04/17 02:34:26;;;;;;;4.72;2.03;;;;;;;13.03;100.00;97522.06;5216459;27;20008;-81
2024/04/17 02:36:52;;;;;;;2.92;1.98;;;;;;;13.07;100.00;97528.56;5214381;27;20057;-83
2024/04/17 02:39:18;;;;;;;7.82;2.08;;;;;;;13.01;100.00;97529.47;5192360;27;20030;-83
2024/04/17 02:41:44;;;;;;;3.25;1.63;;;;;;;13.02;100.00;97534.56;5190226;27;20077;-81
2024/04/17 02:44:15;;;;;;;3.13;1.70;;;;;;;13.11;100.00;97540.41;5217960;27;20010;-81
2024/04/17 02:46:40;;;;;;;4.22;1.60;;;;;;;13.03;100.00;97532.72;5218520;27;20002;-82
2024/04/17 02:49:07;;;;;;;5.78;2.03;;;;;;;13.03;100.00;97540.72;5191035;27;20006;-83
2024/04/17 02:51:34;;;;;;;3.55;2.00;;;;;;;13.02;100.00;97547.88;5191135;27;20009;-82
2024/04/17 02:54:00;;;;;;;4.20;1.58;;;;;;;13.03;100.00;97556.69;5246953;27;20146;-82
2024/04/17 02:56:26;;;;;;;2.22;1.63;;;;;;;13.08;100.00;97538.19;5192143;27;20442;-81
2024/04/17 02:58:52;;;;;;;3.67;1.65;;;;;;;13.09;100.00;97526.50;5191297;27;20030;-82
2024/04/17 03:01:18;;;;;;;2.88;1.60;;;;;;;13.04;100.00;97535.16;5212684;27;19999;-82
2024/04/17 03:03:44;;;;;;;2.30;1.48;;;;;;;13.01;100.00;97532.94;5185023;27;19998;-81
2024/04/17 03:06:12;;;;;;;2.72;1.58;;;;;;;12.99;100.00;97526.19;5212937;27;20489;-83
2024/04/17 03:08:38;;;;;;;3.15;1.50;;;;;;;12.98;100.00;97537.88;5212472;27;20229;-82
2024/04/17 03:11:04;;;;;;;3.25;1.70;;;;;;;12.96;100.00;97527.44;5157289;27;20458;-83
2024/04/17 03:13:30;;;;;;;2.40;1.50;;;;;;;12.94;100.00;97534.88;5186052;27;20347;-81
2024/04/17 03:16:00;;;;;;;1.92;1.50;;;;;;;12.93;100.00;97527.88;5271234;26;19997;-81
2024/04/17 03:18:30;;;;;;;3.70;1.85;;;;;;;12.88;100.00;97533.09;5284834;26;20067;-82
2024/04/17 03:21:03;;;;;;;3.83;1.95;;;;;;;12.90;100.00;97533.66;5284529;26;19997;-81
2024/04/17 03:23:29;;;;;;;3.55;1.88;;;;;;;12.84;100.00;97542.56;5285192;26;20175;-82
2024/04/17 03:25:56;;;;;;;2.67;1.60;;;;;;;12.83;100.00;97542.78;5285521;26;20112;-83
2024/04/17 03:28:22;;;;;;;3.05;1.70;;;;;;;12.83;100.00;97537.44;5256153;26;20025;-82
2024/04/17 03:30:49;;;;;;;4.18;1.88;;;;;;;12.84;100.00;97539.88;5257893;26;19997;-82
2024/04/17 03:33:15;;;;;;;2.78;1.60;;;;;;;12.76;100.00;97555.38;5289306;26;20064;-81
2024/04/17 03:35:42;;;;;;;3.40;1.40;;;;;;;12.77;100.00;97555.16;5290278;26;20005;-81
2024/04/17 03:38:11;;;;;;;3.38;1.80;;;;;;;12.79;100.00;97558.38;5289714;26;20033;-79
2024/04/17 03:40:37;;;;;;;3.92;1.60;;;;;;;12.68;100.00;97564.47;5289864;26;20336;-80
2024/04/17 03:43:09;;;;;;;4.95;2.35;;;;;;;12.74;100.00;97565.41;5289558;26;20005;-81
2024/04/17 03:45:36;;;;;;;8.02;3.35;;;;;;;12.65;100.00;97564.09;5261457;26;20005;-81
2024/04/17 03:48:05;;;;;;;3.60;1.98;;;;;;;12.57;100.00;97562.53;5260939;26;20012;-81
2024/04/17 03:50:31;;;;;;;3.67;1.83;;;;;;;12.53;100.00;97561.31;5317060;26;20344;-81
2024/04/17 03:52:57;;;;;;;4.00;2.00;;;;;;;12.48;100.00;97552.38;5289927;26;20014;-81
2024/04/17 03:55:23;;;;;;;3.00;1.70;;;;;;;12.47;100.00;97550.75;5289905;26;20323;-82
2024/04/17 03:57:51;;;;;;;2.03;1.60;;;;;;;12.56;100.00;97544.13;5289785;26;20008;-82
2024/04/17 04:00:19;;;;;;;4.65;2.00;;;;;;;12.45;100.00;97542.19;5289863;26;20005;-83
2024/04/17 04:02:46;;;;;;;4.93;1.63;;;;;;;12.45;100.00;97548.31;5294718;26;20382;-83
2024/04/17 04:05:16;;;;;;;2.38;1.50;;;;;;;12.50;100.00;97553.00;5299280;26;20004;-79
2024/04/17 04:07:49;;;;;;;2.38;1.70;;;;;;;12.51;100.00;97550.09;5294170;26;20001;-81
2024/04/17 04:10:31;;;;;;;2.45;1.40;;;;;;;12.62;100.00;97545.88;5201260;27;20014;-76
2024/04/17 04:12:59;;;;;;;3.80;1.95;;;;;;;12.44;100.00;97546.69;5195641;27;20318;-75
2024/04/17 04:15:25;;;;;;;5.10;2.05;;;;;;;12.40;100.00;97552.66;5194248;27;20436;-75
2024/04/17 04:17:51;;;;;;;5.63;2.45;;;;;;;12.32;100.00;97559.09;5193191;27;20002;-74
2024/04/17 04:20:17;;;;;;;4.53;2.13;;;;;;;12.22;100.00;97558.78;5192124;27;20041;-74
2024/04/17 04:22:43;;;;;;;3.28;1.80;;;;;;;12.21;100.00;97561.66;5164985;27;20007;-75
2024/04/17 04:25:08;;;;;;;3.33;1.80;;;;;;;12.08;100.00;97559.09;5192453;27;19998;-74
2024/04/17 04:27:34;;;;;;;3.63;2.00;;;;;;;11.98;100.00;97566.78;5219680;27;20477;-74
2024/04/17 04:30:00;;;;;;;4.55;2.20;;;;;;;12.00;100.00;97567.34;5219147;27;20006;-77
2024/04/17 04:32:27;;;;;;;4.10;2.45;;;;;;;12.03;100.00;97573.06;5220379;27;20198;-76
2024/04/17 04:34:57;;;;;;;7.03;2.15;;;;;;;12.02;100.00;97576.75;5196376;27;20009;-76
2024/04/17 04:37:25;;;;;;;6.85;2.80;;;;;;;11.99;100.00;97589.69;5194540;27;20014;-76
2024/04/17 04:39:53;;;;;;;4.47;2.80;;;;;;;12.10;100.00;97584.44;5181341;27;20458;-76
2024/04/17 04:42:26;;;;;;;8.68;3.22;;;;;;;12.13;100.00;97589.34;5222419;27;20022;-76
2024/04/17 04:44:53;;;;;;;6.10;2.63;;;;;;;12.29;100.00;97580.81;5247198;27;19995;-75
2024/04/17 04:47:19;;;;;;;5.15;2.55;;;;;;;12.31;100.00;97588.59;5245022;27;20006;-75
2024/04/17 04:49:45;;;;;;;6.70;2.70;;;;;;;12.30;100.00;97590.41;5219331;27;20417;-77
2024/04/17 04:52:22;;;;;;;4.93;2.40;;;;;;;12.44;100.00;97583.94;5272193;27;19997;-76
2024/04/17 04:55:06;;;;;;;5.05;2.95;;;;;;;12.45;100.00;97580.28;5224475;27;20013;-76
2024/04/17 04:57:34;;;;;;;6.10;2.67;;;;;;;12.46;100.00;97584.56;5223249;27;20397;-77
2024/04/17 05:00:03;;;;;;;3.47;2.28;;;;;;;12.50;100.00;97585.72;5197593;27;20002;-77
2024/04/17 05:02:35;;;;;;;2.17;1.70;;;;;;;12.49;100.00;97581.44;5275479;27;20014;-76
2024/04/17 05:05:06;;;;;;;2.75;1.70;;;;;;;12.48;100.00;97587.81;5138209;27;20022;-76
2024/04/17 05:07:35;;;;;;;3.30;2.00;;;;;;;12.41;100.00;97583.59;5148731;27;20011;-77
2024/04/17 05:10:01;;;;;;;4.30;2.00;;;;;;;12.41;100.00;97578.28;5176526;27;20012;-76
2024/04/17 05:12:30;;;;;;;2.50;1.65;;;;;;;12.42;100.00;97575.38;5107978;27;20010;-77
2024/04/17 05:15:01;;;;;;;3.63;1.90;;;;;;;12.44;100.00;97577.81;5214494;27;20062;-77
2024/04/17 05:17:30;;;;;;;5.70;1.90;;;;;;;12.40;100.00;97585.44;5214128;27;20007;-77
2024/04/17 05:19:56;;;;;;;5.57;2.03;;;;;;;12.40;100.00;97587.28;5186388;27;19999;-77
2024/04/17 05:22:22;;;;;;;3.97;2.03;;;;;;;12.44;100.00;97581.28;5159028;27;20010;-77
2024/04/17 05:24:48;;;;;;;3.47;2.30;;;;;;;12.34;100.00;97581.00;5186294;27;20010;-77
2024/04/17 05:27:14;;;;;;;3.08;2.00;;;;;;;12.38;100.00;97581.38;5159107;27;20434;-76
2024/04/17 05:29:43;;;;;;;2.90;2.00;;;;;;;12.39;100.00;97585.66;5160950;27;20015;-76
2024/04/17 05:32:14;;;;;;;3.03;2.13;;;;;;;12.34;100.00;97591.63;5155022;27;20066;-77
2024/04/17 05:34:40;;;;;;;2.55;1.90;;;;;;;12.32;100.00;97593.69;5159411;27;19999;-77
2024/04/17 05:37:06;;;;;;;3.55;1.85;;;;;;;12.32;100.00;97582.22;5213880;27;19999;-77
2024/04/17 05:39:32;;;;;;;3.75;1.85;;;;;;;12.33;100.00;97594.50;5169734;27;20005;-77
2024/04/17 05:41:58;;;;;;;3.63;2.00;;;;;;;12.40;100.00;97598.75;5247460;27;20006;-77
2024/04/17 05:44:24;;;;;;;3.08;2.10;;;;;;;12.45;100.00;97606.06;5264177;26;20399;-77
2024/04/17 05:46:50;;;;;;;3.13;1.60;;;;;;;12.50;100.00;97608.91;5287501;26;20012;-76
2024/04/17 05:49:16;;;;;;;2.85;1.65;;;;;;;12.46;100.00;97597.03;5283679;26;20024;-81
2024/04/17 05:51:44;;;;;;;4.68;2.03;;;;;;;12.54;100.00;97586.09;5246154;26;20005;-79
2024/04/17 05:54:11;;;;;;;2.92;1.40;;;;;;;12.52;100.00;97594.31;5269882;26;20079;-79
2024/04/17 05:56:37;;;;;;;3.42;1.73;;;;;;;12.54;100.00;97597.59;5253254;26;20319;-78
2024/04/17 05:59:03;;;;;;;2.83;1.83;;;;;;;12.56;100.00;97589.38;5239952;26;20484;-79
2024/04/17 06:01:29;;;;;;;2.30;1.75;;;;;;;12.54;100.00;97594.91;5244759;26;20009;-79
2024/04/17 06:03:56;;;;;;;2.60;1.90;;;;;;;12.63;100.00;97585.59;5281071;27;20045;-79
2024/04/17 06:06:22;;;;;;;1.98;1.60;;;;;;;12.61;100.00;97582.34;5272821;26;20023;-79
2024/04/17 06:08:50;;;;;;;2.25;1.58;;;;;;;12.68;100.00;97577.78;5344985;26;20009;-79
2024/04/17 06:11:16;;;;;;;3.17;1.60;;;;;;;12.76;100.00;97566.81;5288884;26;20281;-79
2024/04/17 06:13:50;;;;;;;2.22;1.38;;;;;;;12.92;100.00;97563.56;5317727;26;20016;-78
2024/04/17 06:16:16;;;;;;;3.20;1.50;;;;;;;12.88;100.00;97564.25;5283950;27;20042;-80
2024/04/17 06:18:45;;;;;;;1.92;1.73;;;;;;;12.95;100.00;97560.47;5295251;27;20463;-79
2024/04/17 06:21:12;;;;;;;1.90;1.38;;;;;;;13.01;100.00;97558.78;5239441;27;20072;-79
2024/04/17 06:23:39;;;;;;;3.63;1.98;;;;;;;13.14;100.00;97567.44;5226109;27;20110;-77
2024/04/17 06:26:08;;;;;;;2.03;1.70;;;;;;;13.29;100.00;97586.50;5212562;27;20031;-79
2024/04/17 06:28:34;;;;;;;3.20;1.90;;;;;;;13.30;100.00;97585.47;5185691;27;20064;-79
2024/04/17 06:31:02;;;;;;;13.20;4.30;;;;;;;13.27;100.00;97596.56;5133163;27;20002;-79
2024/04/17 06:33:33;;;;;;;5.43;2.97;;;;;;;13.18;100.00;97591.75;5186133;27;20092;-79
2024/04/17 06:35:59;;;;;;;6.57;3.25;;;;;;;12.85;100.00;97589.47;5148887;27;20018;-79
2024/04/17 06:38:25;;;;;;;5.25;2.60;;;;;;;12.85;100.00;97597.47;5140964;27;20447;-80
2024/04/17 06:40:52;;;;;;;2.35;2.10;;;;;;;12.90;100.00;97605.59;5170820;27;20032;-80
2024/04/17 06:43:22;;;;;;;7.57;2.67;;;;;;;12.84;100.00;97611.81;5140941;27;20426;-80
2024/04/17 06:45:53;;;;;;;4.25;2.67;;;;;;;12.55;100.00;97609.03;5168413;27;20007;-78
2024/04/17 06:48:19;;;;;;;3.35;1.90;;;;;;;12.55;100.00;97617.84;5171529;27;20026;-79
2024/04/17 06:50:45;;;;;;;4.47;2.20;;;;;;;12.39;100.00;97610.44;5167880;27;20019;-80
2024/04/17 06:53:11;;;;;;;6.65;2.47;;;;;;;12.47;100.00;97609.34;5196866;27;20489;-76
2024/04/17 06:55:37;;;;;;;3.97;2.15;;;;;;;12.67;100.00;97600.09;5173616;27;20413;-75
2024/04/17 06:58:03;;;;;;;2.00;1.80;;;;;;;12.82;100.00;97603.22;5172714;27;20020;-77
2024/04/17 07:00:34;;;;;;;6.82;2.20;;;;;;;12.97;100.00;97597.53;5223951;27;20002;-78
2024/04/17 07:03:00;;;;;;;4.00;2.00;;;;;;;12.93;100.00;97599.03;5206714;27;20035;-78
2024/04/17 07:05:27;;;;;;;4.35;2.13;;;;;;;13.03;100.00;97591.34;5284968;26;20320;-79
2024/04/17 07:07:53;;;;;;;14.00;2.20;;;;;;;13.13;100.00;97608.44;5274950;26;20012;-80
2024/04/17 07:11:31;;;;;;;2.33;1.98;;;;;;;13.22;100.00;97616.97;5254871;26;20009;-80
2024/04/17 07:13:36;;;;;;;4.60;1.90;;;;;;;13.04;100.00;97612.44;5321680;26;20009;-75
2024/04/17 07:16:05;;;;;;;2.55;1.80;;;;;;;13.05;100.00;97600.72;5268792;26;20002;-77
2024/04/17 07:18:32;;;;;;;2.42;1.80;;;;;;;12.94;100.00;97601.47;5296705;26;20029;-76
2024/04/17 07:20:57;;;;;;;5.22;2.03;;;;;;;12.99;100.00;97606.13;5215792;26;20013;-80
2024/04/17 07:23:23;;;;;;;3.50;1.70;;;;;;;13.12;100.00;97590.81;5246415;26;20451;-81
2024/04/17 07:25:49;;;;;;;3.05;2.08;;;;;;;13.20;100.00;97598.53;5248104;26;20011;-80
2024/04/17 07:28:18;;;;;;;5.55;3.28;;;;;;;13.31;100.00;97602.28;5242433;26;20004;-82
2024/04/17 07:30:46;;;;;;;3.53;2.20;;;;;;;13.39;100.00;97594.78;5244557;26;20005;-81
2024/04/17 07:33:36;;;;;;;4.00;2.33;;;;;;;13.61;100.00;97596.97;5256043;26;20083;-81
2024/04/17 07:36:05;;;;;;;4.32;2.00;;;;;;;13.58;100.00;97601.69;5181505;27;20004;-82
2024/04/17 07:38:30;;;;;;;4.80;2.22;;;;;;;13.73;100.00;97597.81;5136825;27;20021;-80
2024/04/17 07:41:03;;;;;;;2.75;1.83;;;;;;;13.94;100.00;97602.63;5160723;27;20008;-81
2024/04/17 07:43:37;;;;;;;4.28;2.08;;;;;;;14.25;100.00;97597.03;5156417;27;20111;-82
2024/04/17 07:46:08;;;;;;;2.83;1.95;;;;;;;14.49;100.00;97598.66;5129385;27;20021;-83
2024/04/17 07:48:40;;;;;;;3.78;1.70;;;;;;;14.79;100.00;97589.47;5138653;27;20022;-82
2024/04/17 07:51:06;;;;;;;4.40;1.92;;;;;;;15.10;100.00;97597.09;5184572;27;20470;-82
2024/04/17 07:53:32;;;;;;;1.95;1.60;;;;;;;15.23;100.00;97593.34;5245106;26;20011;-82
2024/04/17 07:56:00;;;;;;;3.38;1.95;;;;;;;15.48;100.00;97596.56;5311028;27;19997;-82
2024/04/17 07:58:26;;;;;;;1.98;1.40;;;;;;;15.60;100.00;97610.72;5281826;27;20488;-82
2024/04/17 08:00:58;;;;;;;1.75;1.23;;;;;;;15.64;100.00;97619.06;5283622;27;20120;-83
2024/04/17 08:03:49;;;;;;;2.20;1.60;;;;;;;15.49;100.00;97610.75;5258539;27;20001;-82
2024/04/17 08:06:40;;;;;;;2.88;1.85;;;;;;;15.50;100.00;97605.16;5314726;26;20008;-83
2024/04/17 08:09:11;;;;;;;1.40;1.30;;;;;;;15.46;100.00;97601.34;5283395;27;20080;-83
2024/04/17 08:11:37;;;;;;;2.78;1.70;;;;;;;15.25;100.00;97597.41;5235039;27;19997;-84
2024/04/17 08:14:06;;;;;;;1.40;1.30;;;;;;;15.32;100.00;97604.47;5284387;27;20449;-85
2024/04/17 08:16:32;;;;;;;2.65;1.60;;;;;;;15.27;100.00;97607.88;5254221;27;19997;-84
2024/04/17 08:19:01;;;;;;;2.67;1.60;;;;;;;15.25;100.00;97602.75;5283375;27;19998;-84
2024/04/17 08:21:28;;;;;;;3.95;1.70;;;;;;;15.10;100.00;97598.94;5283158;27;20008;-84
2024/04/17 08:24:02;;;;;;;2.38;1.60;;;;;;;15.09;100.00;97600.00;5250821;27;20116;-84
2024/04/17 08:26:27;;;;;;;3.95;2.33;;;;;;;15.01;100.00;97600.38;5232533;26;19997;-84
2024/04/17 08:28:59;;;;;;;2.85;1.70;;;;;;;15.11;100.00;97597.91;5232138;26;19996;-83
2024/04/17 08:31:27;;;;;;;1.95;1.52;;;;;;;15.15;100.00;97596.38;5248836;27;19999;-83
2024/04/17 08:33:55;;;;;;;2.50;1.50;;;;;;;15.22;100.00;97597.09;5221929;27;20123;-84
2024/04/17 08:36:28;;;;;;;1.92;1.60;;;;;;;15.34;100.00;97613.91;5222382;27;19999;-85
2024/04/17 08:38:56;;;;;;;2.30;1.58;;;;;;;15.38;100.00;97615.09;5192567;27;20022;-84
2024/04/17 08:41:30;;;;;;;1.67;1.45;;;;;;;15.37;100.00;97605.41;5281629;27;19997;-85
2024/04/17 08:45:16;;;;;;;;;;;;;;;;;;;;;
2024/04/17 08:48:15;;;;;;;3.20;1.48;;;;;;;15.46;100.00;97601.34;5092496;28;20006;-83
2024/04/17 08:50:45;;;;;;;2.10;1.60;;;;;;;15.50;100.00;97607.81;5120217;27;20024;-83
2024/04/17 08:56:44;;;;;;;5.88;1.85;;;;;;;15.27;100.00;97623.13;5083517;28;20034;-83
2024/04/17 08:59:12;;;;;;;4.72;2.10;;;;;;;15.04;100.00;97627.44;5108378;27;20455;-83
2024/04/17 09:01:39;;;;;;;2.50;1.60;;;;;;;15.04;100.00;97629.31;5122648;27;20014;-84
2024/04/17 09:04:06;;;;;;;1.98;1.65;;;;;;;15.01;100.00;97633.25;5203140;27;20004;-84
2024/04/17 09:06:33;;;;;;;2.75;1.83;;;;;;;14.92;100.00;97639.19;5155144;27;20019;-83
2024/04/17 09:09:11;;;;;;;2.88;1.63;;;;;;;14.86;100.00;97634.78;5181461;27;20003;-84
2024/04/17 09:11:37;;;;;;;3.33;1.60;;;;;;;14.79;100.00;97639.47;5206422;27;20018;-83
2024/04/17 09:14:09;;;;;;;2.28;1.30;;;;;;;14.82;100.00;97637.09;5274946;26;20037;-84
2024/04/17 09:16:41;;;;;;;3.92;1.60;;;;;;;14.75;100.00;97633.75;5288417;26;20004;-84
2024/04/17 09:19:14;;;;;;;5.00;2.03;;;;;;;14.66;100.00;97647.69;5316755;26;20012;-84
2024/04/17 09:21:46;;;;;;;2.90;1.70;;;;;;;14.50;100.00;97632.38;5316666;26;20013;-83
2024/04/17 09:24:18;;;;;;;2.38;1.60;;;;;;;14.35;100.00;97627.47;5347905;26;20001;-83
2024/04/17 09:26:51;;;;;;;4.50;1.90;;;;;;;14.24;100.00;97638.94;5390137;26;20008;-84
2024/04/17 09:29:17;;;;;;;4.88;1.92;;;;;;;14.05;100.00;97639.22;5336029;26;20012;-84
2024/04/17 09:31:47;;;;;;;3.75;1.60;;;;;;;14.13;100.00;97644.22;5309356;26;20005;-84
2024/04/17 09:34:21;;;;;;;3.03;2.10;;;;;;;14.07;100.00;97642.47;5346817;26;20421;-82
2024/04/17 09:36:50;;;;;;;2.90;1.90;;;;;;;13.98;100.00;97625.97;5323464;26;20004;-84
2024/04/17 09:39:16;;;;;;;3.90;2.28;;;;;;;13.93;100.00;97649.03;5300234;26;20036;-83
2024/04/17 09:41:43;;;;;;;2.97;1.80;;;;;;;13.94;100.00;97651.47;5324417;26;20004;-83
2024/04/17 09:44:21;;;;;;;3.83;1.95;;;;;;;13.75;100.00;97649.06;5274548;26;20066;-83
2024/04/17 09:46:53;;;;;;;2.30;1.98;;;;;;;13.77;100.00;97653.16;5321501;26;20008;-82
2024/04/17 09:49:20;;;;;;;3.58;2.30;;;;;;;13.65;100.00;97644.28;5292958;26;20015;-83
2024/04/17 09:51:46;;;;;;;2.75;1.88;;;;;;;13.69;100.00;97653.47;5276467;26;20028;-83
2024/04/17 09:54:13;;;;;;;3.67;2.03;;;;;;;13.65;100.00;97643.47;5306718;26;20005;-84
2024/04/17 09:56:40;;;;;;;4.00;2.30;;;;;;;13.63;100.00;97642.88;5315558;26;20074;-84
2024/04/17 09:59:08;;;;;;;2.97;1.90;;;;;;;13.63;100.00;97640.22;5260167;26;20013;-82
2024/04/17 10:01:36;;;;;;;3.13;1.92;;;;;;;13.63;100.00;97637.53;5263888;26;20063;-80
2024/04/17 10:04:03;;;;;;;2.22;2.00;;;;;;;13.57;100.00;97623.28;5294428;26;20406;-83
2024/04/17 10:06:30;;;;;;;3.75;2.28;;;;;;;13.65;100.00;97633.63;5320241;26;19996;-83
2024/04/17 10:08:57;;;;;;;2.78;2.20;;;;;;;13.83;100.00;97643.41;5281088;27;20013;-80
2024/04/17 10:11:26;;;;;;;3.50;2.20;;;;;;;13.97;100.00;97637.69;5254294;27;19997;-83
2024/04/17 10:13:53;;;;;;;4.38;2.47;;;;;;;13.89;100.00;97632.66;5229032;27;20009;-81
2024/04/17 10:16:19;;;;;;;3.00;2.05;;;;;;;13.94;100.00;97640.81;5241820;27;19990;-82
2024/04/17 10:18:45;;;;;;;3.78;2.17;;;;;;;13.95;100.00;97637.09;5243240;27;20001;-80
2024/04/17 10:21:22;;;;;;;6.03;2.60;;;;;;;13.98;100.00;97630.47;5254981;27;20120;-82
2024/04/17 10:24:02;;;;;;;3.42;2.75;;;;;;;13.94;100.00;97631.97;5292825;26;20004;-84
2024/04/17 10:26:47;;;;;;;3.67;2.40;;;;;;;13.86;100.00;97637.63;5361692;26;20078;-80
2024/04/17 10:29:26;;;;;;;3.78;2.60;;;;;;;13.76;100.00;97629.38;5299420;26;20016;-74
2024/04/17 10:32:00;;;;;;;5.25;2.83;;;;;;;13.69;100.00;97615.31;5300808;26;20009;-81
2024/04/17 10:34:32;;;;;;;3.60;2.83;;;;;;;13.68;100.00;97617.16;5300270;26;20009;-82
2024/04/17 10:37:02;;;;;;;4.72;3.22;;;;;;;13.65;100.00;97622.13;5295208;26;20568;-81
2024/04/17 10:39:29;;;;;;;3.88;2.95;;;;;;;13.62;100.00;97623.41;5288405;27;20141;-82
2024/04/17 10:41:58;;;;;;;2.78;2.50;;;;;;;13.60;100.00;97625.47;5249055;26;19993;-82
2024/04/17 10:44:28;;;;;;;4.53;2.72;;;;;;;13.55;100.00;97628.81;5262880;26;20001;-81
2024/04/17 10:47:02;;;;;;;3.38;2.50;;;;;;;13.56;100.00;97629.66;5288297;26;20017;-81
2024/04/17 10:49:28;;;;;;;4.95;2.65;;;;;;;13.47;100.00;97642.47;5288033;26;20005;-80
2024/04/17 10:51:55;;;;;;;3.42;2.40;;;;;;;13.47;100.00;97645.13;5261345;26;20067;-82
2024/04/17 10:54:24;;;;;;;3.45;2.67;;;;;;;13.43;100.00;97653.81;5308036;26;20439;-81
2024/04/17 10:56:50;;;;;;;3.22;2.80;;;;;;;13.32;100.00;97654.56;5287579;26;20005;-81
2024/04/17 10:59:17;;;;;;;4.25;2.80;;;;;;;13.30;100.00;97654.78;5316204;26;20009;-81
2024/04/17 11:01:42;;;;;;;4.07;2.88;;;;;;;13.36;100.00;97653.09;5283344;26;20447;-81
2024/04/17 11:04:10;;;;;;;4.00;2.97;;;;;;;13.55;100.00;97649.34;5288720;26;20075;-81
2024/04/17 11:06:36;;;;;;;3.75;3.03;;;;;;;13.50;100.00;97660.69;5288212;26;20070;-81
2024/04/17 11:09:09;;;;;;;3.35;2.50;;;;;;;13.59;100.00;97661.22;5225341;27;19997;-81
2024/04/17 11:11:36;;;;;;;3.20;2.75;;;;;;;13.63;100.00;97669.53;5253016;27;20029;-82
2024/04/17 11:14:03;;;;;;;4.43;2.75;;;;;;;13.67;100.00;97676.09;5224527;27;19998;-81
2024/04/17 11:16:30;;;;;;;4.07;3.05;;;;;;;13.65;100.00;97667.47;5224238;27;20355;-82
2024/04/17 11:18:57;;;;;;;4.68;3.30;;;;;;;13.45;100.00;97671.19;5224334;27;20029;-81
2024/04/17 11:21:23;;;;;;;3.53;3.08;;;;;;;13.45;100.00;97671.19;5223707;27;20121;-82
2024/04/17 11:23:49;;;;;;;4.22;3.50;;;;;;;13.38;100.00;97675.81;5196862;27;20177;-82
2024/04/17 11:26:15;;;;;;;4.22;2.90;;;;;;;13.40;100.00;97672.91;5224291;27;20029;-81
2024/04/17 11:28:41;;;;;;;4.68;3.10;;;;;;;13.52;100.00;97681.78;5223838;27;20002;-81
2024/04/17 11:31:11;;;;;;;4.75;3.30;;;;;;;13.49;100.00;97682.25;5196258;27;20030;-79
2024/04/17 11:33:38;;;;;;;5.20;3.08;;;;;;;13.57;100.00;97674.75;5199906;26;20390;-81
2024/04/17 11:36:05;;;;;;;5.03;3.22;;;;;;;13.62;100.00;97675.94;5257656;26;20019;-81
2024/04/17 11:38:31;;;;;;;8.15;3.75;;;;;;;13.67;100.00;97668.88;5236457;27;20005;-82